메인 페이지
METAR-TAF:

METAR-TAF

공항 :

이키토스, 페루

위도: 03-45S, 경도: 073-15W, 고도: 125m

현재 날씨관측

예보는 19분 전, 19:00시(UTC)에 발표되었습니다.
3kt풍과 서남서풍을 오가는
온도 31°C
습도 79%
기압 1011 hPa
시정 10km 이상
고도 1700ft 상공 구름 많음
시계 내 소나기

METAR: SPQT 181900Z 17003KT 080V240 9999 VCSH BKN017 31/27 Q1011 NOSIG RMK PP000

시각: 14:19 (19:19 UTC)

예보

예보는 2 시간 19분 전, 17:00시(UTC)에 발표되었습니다.
예보 대상 시간: 18일 18시부터 19일 18시까지 (UTC)
남남동5kt
시정 10km 이상
고도 1500ft 상공 구름 많음
고도 10000ft 상공 구름 많음
일시적
18일 18시부터 18일 22시까지 (UTC)
시정: 3000m
고도 1200ft 상공 구름 많음
고도 2500ft 상공 구름 조금, 타워링 적운.
고도 8000ft 상공 구름 많음
소나기
일시적
19일 08시부터 19일 12시까지 (UTC)
시정: 2000m
고도 300ft 상공 구름 많음
박무,

TAF: SPQT 181700Z 1818/1918 15005KT 9999 BKN015 BKN100 TX32/1820Z TN24/1911Z TEMPO 1818/1822 3000 SHRA BKN012 FEW025TCU BKN080 TEMPO 1908/1912 2000 BR BKN003

4,000개 이상의 공항 관측 자료 및 예보 (METAR 및 TAF 보고).

지도상에서 검색 가능한 기상관측소가 노란 점과 빨간 점으로 표시되어 있습니다.

기상관측소 명을 보려면 표시 위로 마우스를 이동하세요.

날씨 관측과 예보를 보려면 클릭하세요.

지도 변경 : 확대하려면 엑스 표시가 있는 녹색 버튼, 축소하려면 빼기 표시가 있는 녹색 버튼, 다음 페이지의 지도를 보려면 녹색 화살표를 클릭하세요.


METAR-TAF: